Latest Coastal Weather Observations for Dunalley

IDT60701

Issued at 4:11 pm EDT Saturday 28 March 2015 (issued every 10 minutes, with the page automatically refreshed every 10 minutes)

About coastal observations | Map of coastal stations | Coastal observations for TAS | Marine services | Other Formats
Station Details ID: 094254 Name: DUNALLEY (STROUD POINT) Lat: -42.90 Lon: 147.79 Height: 12.43 m
Data from the previous 72 hours. | See also: Recent months at Dunalley
Date/Time
EDT
Temp

°C
Wind Pressure Rain
since 9am
mm
Weather Cloud Vis
km
Sea
Height
m
Swell
Dir
 
Speed
knots
Gust
knots
hPa Trend Height
m
Period
s
Dir
28/04:00pm 16.6 SSW 4 5 1018.2 - 0.0 - - - - - - -
28/03:30pm 17.3 SSW 4 5 1018.3 - 0.0 - - - - - - -
28/03:00pm 16.7 SSW 5 7 1018.7 - 0.0 - - - - - - -
28/02:30pm 17.0 SSW 5 6 1018.9 - 0.0 - - - - - - -
28/02:00pm 16.4 SSW 5 6 1019.3 - 0.0 - - - - - - -
28/01:30pm 15.8 SW 6 7 1019.8 - 0.0 - - - - - - -
28/01:00pm 15.9 SW 6 7 1020.1 - 0.0 - - - - - - -
28/12:30pm 15.2 SW 8 10 1020.5 - 0.0 - - - - - - -
28/12:00pm 15.4 WSW 6 9 1020.8 - 0.0 - - - - - - -
28/11:30am 15.1 WSW 5 8 1021.0 - 0.0 - - - - - - -
28/11:00am 15.1 W 7 12 1021.0 - 0.0 - - - - - - -
28/10:30am 14.6 W 8 12 1021.2 - 0.0 - - - - - - -
28/10:00am 14.2 W 8 11 1021.2 - 0.0 - - - - - - -
28/09:30am 13.7 WNW 7 10 1021.0 - 0.0 - - - - - - -
28/09:00am 13.1 NW 6 9 1021.0 - 3.0 - - - - - - -
28/08:30am 12.1 NW 7 11 1021.0 - 3.0 - - - - - - -
28/08:00am 12.7 SW 15 19 1020.7 - 3.0 - - - - - - -
28/07:30am 12.3 WSW 16 19 1020.5 - 3.0 - - - - - - -
28/07:00am 12.7 WSW 16 18 1020.3 - 3.0 - - - - - - -
28/06:30am 12.9 WSW 16 18 1020.0 - 3.0 - - - - - - -
28/06:00am 13.0 WSW 16 18 1019.9 - 3.0 - - - - - - -
28/05:30am 13.1 WSW 17 20 1019.6 - 3.0 - - - - - - -
28/05:00am 13.1 WSW 16 18 1019.5 - 3.0 - - - - - - -
28/04:30am 13.2 WSW 16 20 1019.4 - 3.0 - - - - - - -
28/04:00am 13.1 WSW 15 17 1019.5 - 3.0 - - - - - - -
28/03:30am 13.0 SW 12 14 1019.7 - 3.0 - - - - - - -
28/03:00am 13.1 SW 11 13 1020.0 - 3.0 - - - - - - -
28/02:30am 13.0 SW 12 15 1020.0 - 3.0 - - - - - - -
28/02:00am 13.3 WSW 15 18 1019.9 - 3.0 - - - - - - -
28/01:30am 13.4 SW 16 19 1019.9 - 3.0 - - - - - - -
28/01:00am 13.1 SW 16 20 1019.8 - 3.0 - - - - - - -
28/12:30am 13.4 SW 16 20 1019.6 - 3.0 - - - - - - -
28/12:00am 13.3 SW 15 17 1019.5 - 3.0 - - - - - - -
 
Date/Time
EDT
Temp

°C
Wind Pressure Rain
since 9am
mm
Weather Cloud Vis
km
Sea
Height
m
Swell
Dir
 
Speed
knots
Gust
knots
hPa Trend Height
m
Period
s
Dir
27/11:30pm 13.4 SW 15 19 1019.5 - 3.0 - - - - - - -
27/11:00pm 13.4 SW 17 20 1019.5 - 3.0 - - - - - - -
27/10:30pm 13.9 SSW 16 20 1019.3 - 3.0 - - - - - - -
27/10:00pm 13.6 SSW 15 18 1019.2 - 3.0 - - - - - - -
27/09:30pm 13.6 SSW 16 21 1019.1 - 3.0 - - - - - - -
27/09:00pm 13.9 SSW 16 19 1018.9 - 3.0 - - - - - - -
27/08:30pm 13.8 SSW 15 23 1018.5 - 3.0 - - - - - - -
27/08:00pm 13.9 SSW 16 21 1018.0 - 3.0 - - - - - - -
27/07:30pm 13.2 SSW 17 21 1017.5 - 3.0 - - - - - - -
27/07:00pm 13.1 SSW 18 24 1017.1 - 2.8 - - - - - - -
27/06:30pm 14.2 SW 19 23 1016.6 - 2.8 - - - - - - -
27/06:00pm 14.2 SSW 23 27 1015.9 - 2.8 - - - - - - -
27/05:30pm 14.5 SW 16 20 1015.6 - 2.8 - - - - - - -
27/05:00pm 14.6 SW 16 19 1015.3 - 2.8 - - - - - - -
27/04:30pm 14.7 SW 18 22 1015.1 - 2.8 - - - - - - -
27/04:00pm 14.9 SW 18 21 1015.0 - 2.8 - - - - - - -
27/03:30pm 14.8 SSW 19 23 1014.7 - 2.8 - - - - - - -
27/03:00pm 15.0 SSW 19 21 1014.2 - 2.8 - - - - - - -
27/02:30pm 14.1 SW 15 20 1014.0 - 2.8 - - - - - - -
27/02:00pm 14.8 SSW 23 26 1013.7 - 2.8 - - - - - - -
27/01:30pm 14.3 SSW 17 21 1013.5 - 2.8 - - - - - - -
27/01:00pm 13.8 SSW 19 24 1013.2 - 2.8 - - - - - - -
27/12:30pm 13.7 SSW 16 19 1013.0 - 2.8 - - - - - - -
27/12:00pm 13.4 SSW 20 27 1012.4 - 2.8 Rain - - - - - -
27/11:30am 13.1 SW 14 19 1012.1 - 2.6 - - - - - - -
27/11:00am 12.6 SW 14 17 1011.8 - 2.4 - - - - - - -
27/10:30am 10.9 W 12 15 1011.5 - 1.6 - - - - - - -
27/10:00am 10.4 WNW 10 14 1011.3 - 0.8 - - - - - - -
27/09:30am 9.8 WNW 12 16 1010.9 - 0.2 - - - - - - -
27/09:00am 9.6 WNW 13 18 1010.6 - 17.4 Recent precip. - - - - - -
27/08:30am 9.0 WNW 12 16 1010.4 - 16.8 - - - - - - -
27/08:00am 8.8 NW 11 15 1010.3 - 16.0 - - - - - - -
27/07:30am 8.8 WNW 11 15 1009.9 - 15.6 - - - - - - -
27/07:00am 9.6 W 9 12 1009.8 - 14.8 - - - - - - -
27/06:30am 10.3 W 15 23 1009.5 - 14.4 - - - - - - -
27/06:00am 10.4 W 12 17 1009.3 - 13.6 - - - - - - -
27/05:30am 11.0 W 14 21 1009.2 - 13.6 - - - - - - -
27/05:00am 9.8 WNW 10 13 1009.3 - 13.6 - - - - - - -
27/04:30am 10.3 W 9 11 1009.2 - 13.6 - - - - - - -
27/04:00am 10.4 WNW 7 9 1009.6 - 13.6 - - - - - - -
27/03:30am 10.9 W 9 12 1009.9 - 13.6 - - - - - - -
27/03:00am 10.7 W 8 13 1010.1 - 13.6 - - - - - - -
27/02:30am 10.7 WNW 7 12 1010.2 - 13.6 - - - - - - -
27/02:00am 12.4 WSW 14 17 1010.2 - 13.6 - - - - - - -
27/01:30am 12.4 W 11 15 1010.3 - 13.6 - - - - - - -
27/01:00am 11.4 WSW 8 10 1010.5 - 13.6 - - - - - - -
27/12:30am 12.5 SW 10 11 1010.5 - 13.6 - - - - - - -
27/12:00am 11.6 SSW 11 15 1010.7 - 13.6 - - - - - - -
 
Date/Time
EDT
Temp

°C
Wind Pressure Rain
since 9am
mm
Weather Cloud Vis
km
Sea
Height
m
Swell
Dir
 
Speed
knots
Gust
knots
hPa Trend Height
m
Period
s
Dir
26/11:30pm 10.9 SSW 7 10 1010.9 - 13.6 - - - - - - -
26/11:00pm 9.8 SSW 5 7 1010.9 - 13.6 - - - - - - -
26/10:30pm 9.9 SSW 2 4 1010.9 - 13.6 - - - - - - -
26/10:00pm 11.2 SSW 2 3 1010.9 - 13.6 - - - - - - -
26/09:30pm 11.7 SSW 7 11 1011.1 - 13.4 - - - - - - -
26/09:00pm 11.5 SW 13 16 1011.3 - 12.0 Rain - - - - - -
26/08:30pm 11.0 WSW 13 15 1011.2 - 10.8 - - - - - - -
26/08:00pm 10.3 W 14 18 1011.2 - 5.0 - - - - - - -
26/07:30pm 13.1 NW 2 3 1010.3 - 3.4 - - - - - - -
26/07:00pm 14.0 NW 3 5 1009.7 - 3.4 - - - - - - -
26/06:30pm 14.5 NW 2 3 1009.5 - 3.4 - - - - - - -
26/06:00pm 15.6 NW 2 3 1009.4 - 3.4 - - - - - - -
26/05:30pm 15.6 NW 3 3 1009.3 - 3.4 - - - - - - -
26/05:00pm 14.8 WNW 5 6 1009.3 - 3.4 - - - - - - -
26/04:30pm 15.0 WNW 4 5 1009.5 - 3.4 - - - - - - -
26/04:00pm 15.5 WNW 7 8 1009.6 - 3.4 - - - - - - -
26/03:30pm 15.4 WNW 5 7 1009.9 - 3.4 - - - - - - -
26/03:00pm 13.8 WNW 5 7 1010.0 - 3.2 - - - - - - -
26/02:30pm 14.5 NW 2 3 1010.0 - 3.2 - - - - - - -
26/02:00pm 13.9 NW 4 8 1010.6 - 3.2 - - - - - - -
26/01:30pm 13.9 NW 2 3 1010.7 - 3.2 - - - - - - -
26/01:00pm 14.3 NW 3 4 1011.1 - 3.0 - - - - - - -
26/12:30pm 14.4 NW 2 4 1011.1 - 3.0 - - - - - - -
26/12:00pm 13.4 WNW 5 7 1011.4 - 3.0 - - - - - - -
26/11:30am 12.5 NNW 5 9 1011.3 - 3.0 - - - - - - -
26/11:00am 11.4 NNW 7 10 1011.8 - 3.0 - - - - - - -
26/10:30am 11.4 NW 5 8 1011.1 - 3.0 - - - - - - -
26/10:00am 11.5 WNW 3 7 1011.3 - 2.8 - - - - - - -
26/09:30am 10.7 WNW 3 4 1011.5 - 2.2 - - - - - - -
26/09:00am 10.9 WNW 4 5 1011.6 - 11.8 Rain - - - - - -
26/08:30am 10.7 NW 9 15 1011.6 - 6.4 - - - - - - -
26/08:00am 12.4 NE 2 3 1011.4 - 1.0 - - - - - - -
26/07:30am 12.6 NE 7 8 1011.2 - 0.0 - - - - - - -
26/07:00am 12.8 NNE 9 10 1011.3 - 0.0 - - - - - - -
26/06:30am 12.4 NE 9 11 1011.2 - 0.0 - - - - - - -
26/06:00am 12.0 NE 10 14 1011.9 - 0.0 - - - - - - -
26/05:30am 11.4 NE 11 13 1012.2 - 0.0 - - - - - - -
26/05:00am 11.5 NE 10 12 1012.4 - 0.0 - - - - - - -
26/04:30am 12.1 NE 8 10 1012.5 - 0.0 - - - - - - -
26/04:00am 12.3 NNE 8 11 1013.0 - 0.0 - - - - - - -
26/03:30am 11.6 N 5 7 1013.2 - 0.0 - - - - - - -
26/03:00am 12.4 NNW 9 13 1013.5 - 0.0 - - - - - - -
26/02:30am 13.3 N 7 14 1013.6 - 0.0 - - - - - - -
26/02:00am 12.8 NNW 10 15 1014.0 - 0.0 - - - - - - -
26/01:30am 13.5 NNW 12 16 1014.2 - 0.0 - - - - - - -
26/01:00am 13.8 NNW 9 14 1014.1 - 0.0 - - - - - - -
26/12:30am 14.1 N 6 9 1014.4 - 0.0 - - - - - - -
26/12:00am 14.3 NNE 7 10 1014.3 - 0.0 - - - - - - -
 
Date/Time
EDT
Temp

°C
Wind Pressure Rain
since 9am
mm
Weather Cloud Vis
km
Sea
Height
m
Swell
Dir
 
Speed
knots
Gust
knots
hPa Trend Height
m
Period
s
Dir
25/11:30pm 14.5 NNE 10 13 1014.1 - 0.0 - - - - - - -
25/11:00pm 14.9 NNE 11 14 1014.1 - 0.0 - - - - - - -
25/10:30pm 14.3 NNE 11 14 1014.2 - 0.0 - - - - - - -
25/10:00pm 14.0 NNE 13 16 1014.2 - 0.0 - - - - - - -
25/09:30pm 14.2 NE 14 17 1013.9 - 0.0 - - - - - - -
25/09:00pm 14.4 NE 16 19 1013.8 - 0.0 - - - - - - -
25/08:30pm 14.8 NE 19 23 1013.7 - 0.0 - - - - - - -
25/08:00pm 14.9 NE 16 20 1013.4 - 0.0 - - - - - - -
25/07:30pm 14.9 NE 16 19 1013.4 - 0.0 - - - - - - -
25/07:00pm 15.2 ENE 17 21 1013.1 - 0.0 - - - - - - -
25/06:30pm 15.3 ENE 16 19 1013.2 - 0.0 - - - - - - -
25/06:00pm 15.8 ENE 15 18 1012.9 - 0.0 - - - - - - -
25/05:30pm 16.2 ENE 16 19 1012.7 - 0.0 - - - - - - -
25/05:00pm 16.2 ENE 14 16 1012.6 - 0.0 - - - - - - -
25/04:30pm 16.3 ENE 12 14 1012.7 - 0.0 - - - - - - -

Other Formats:

Comma delimited format used in spreadsheet applications
http://www.bom.gov.au/fwo/IDT60701/IDT60701.94951.axf

JavaScript Object Notation format (JSON) in row-major order
http://www.bom.gov.au/fwo/IDT60701/IDT60701.94951.json